sensor_id;sensor_type;location;lat;lon;timestamp;P1;durP1;ratioP1;P2;durP2;ratioP2
8791;SDS011;4432;50.890;4.744;2022-09-09T00:03:31;1.60;;;1.07;;
8791;SDS011;4432;50.890;4.744;2022-09-09T00:06:18;0.97;;;0.97;;
8791;SDS011;4432;50.890;4.744;2022-09-09T00:14:20;1.00;;;1.00;;
8791;SDS011;4432;50.890;4.744;2022-09-09T00:17:52;1.20;;;1.10;;
8791;SDS011;4432;50.890;4.744;2022-09-09T00:22:56;2.67;;;1.23;;
8791;SDS011;4432;50.890;4.744;2022-09-09T00:25:49;0.90;;;0.90;;
8791;SDS011;4432;50.890;4.744;2022-09-09T00:28:25;2.50;;;1.10;;
8791;SDS011;4432;50.890;4.744;2022-09-09T00:30:59;2.83;;;1.13;;
8791;SDS011;4432;50.890;4.744;2022-09-09T00:33:32;1.50;;;0.97;;
8791;SDS011;4432;50.890;4.744;2022-09-09T00:36:00;4.63;;;1.63;;
8791;SDS011;4432;50.890;4.744;2022-09-09T00:38:32;3.80;;;1.30;;
8791;SDS011;4432;50.890;4.744;2022-09-09T00:41:14;2.20;;;1.10;;
8791;SDS011;4432;50.890;4.744;2022-09-09T00:46:38;1.77;;;1.30;;
8791;SDS011;4432;50.890;4.744;2022-09-09T00:54:55;2.23;;;1.20;;
8791;SDS011;4432;50.890;4.744;2022-09-09T00:57:38;4.63;;;1.40;;
8791;SDS011;4432;50.890;4.744;2022-09-09T01:00:22;2.17;;;1.40;;
8791;SDS011;4432;50.890;4.744;2022-09-09T01:06:14;1.60;;;1.10;;
8791;SDS011;4432;50.890;4.744;2022-09-09T01:09:02;3.13;;;1.10;;
8791;SDS011;4432;50.890;4.744;2022-09-09T01:17:03;1.67;;;1.10;;
8791;SDS011;4432;50.890;4.744;2022-09-09T01:19:41;1.63;;;1.20;;
8791;SDS011;4432;50.890;4.744;2022-09-09T01:27:51;2.10;;;1.20;;
8791;SDS011;4432;50.890;4.744;2022-09-09T01:30:20;2.83;;;1.20;;
8791;SDS011;4432;50.890;4.744;2022-09-09T01:32:48;1.60;;;1.17;;
8791;SDS011;4432;50.890;4.744;2022-09-09T01:37:55;7.27;;;1.30;;
8791;SDS011;4432;50.890;4.744;2022-09-09T01:40:21;4.53;;;1.03;;
8791;SDS011;4432;50.890;4.744;2022-09-09T01:42:49;3.30;;;1.10;;
8791;SDS011;4432;50.890;4.744;2022-09-09T01:45:14;5.37;;;1.70;;
8791;SDS011;4432;50.890;4.744;2022-09-09T01:47:40;2.43;;;1.10;;
8791;SDS011;4432;50.890;4.744;2022-09-09T01:50:07;1.17;;;1.07;;
8791;SDS011;4432;50.890;4.744;2022-09-09T01:52:36;1.80;;;0.90;;
8791;SDS011;4432;50.890;4.744;2022-09-09T01:55:03;3.13;;;1.27;;
8791;SDS011;4432;50.890;4.744;2022-09-09T01:57:31;1.73;;;1.03;;
8791;SDS011;4432;50.890;4.744;2022-09-09T02:08:09;5.17;;;1.53;;
8791;SDS011;4432;50.890;4.744;2022-09-09T02:10:43;1.40;;;1.30;;
8791;SDS011;4432;50.890;4.744;2022-09-09T02:13:32;1.93;;;1.50;;
8791;SDS011;4432;50.890;4.744;2022-09-09T02:18:55;5.80;;;1.70;;
8791;SDS011;4432;50.890;4.744;2022-09-09T02:21:32;3.50;;;1.47;;
8791;SDS011;4432;50.890;4.744;2022-09-09T02:24:00;9.47;;;1.50;;
8791;SDS011;4432;50.890;4.744;2022-09-09T02:26:29;2.83;;;1.70;;
8791;SDS011;4432;50.890;4.744;2022-09-09T02:28:58;1.30;;;1.20;;
8791;SDS011;4432;50.890;4.744;2022-09-09T02:31:26;5.90;;;1.60;;
8791;SDS011;4432;50.890;4.744;2022-09-09T02:33:56;2.90;;;1.47;;
8791;SDS011;4432;50.890;4.744;2022-09-09T02:36:26;1.40;;;1.30;;
8791;SDS011;4432;50.890;4.744;2022-09-09T02:38:55;7.80;;;1.77;;
8791;SDS011;4432;50.890;4.744;2022-09-09T02:41:32;5.03;;;1.57;;
8791;SDS011;4432;50.890;4.744;2022-09-09T02:44:00;4.03;;;1.40;;
8791;SDS011;4432;50.890;4.744;2022-09-09T02:46:29;2.83;;;1.80;;
8791;SDS011;4432;50.890;4.744;2022-09-09T02:49:10;3.53;;;1.60;;
8791;SDS011;4432;50.890;4.744;2022-09-09T02:54:41;6.07;;;1.40;;
8791;SDS011;4432;50.890;4.744;2022-09-09T02:57:12;4.63;;;1.50;;
8791;SDS011;4432;50.890;4.744;2022-09-09T02:59:48;3.97;;;1.20;;
8791;SDS011;4432;50.890;4.744;2022-09-09T03:02:17;1.13;;;1.13;;
8791;SDS011;4432;50.890;4.744;2022-09-09T03:04:43;1.60;;;1.50;;
8791;SDS011;4432;50.890;4.744;2022-09-09T03:07:10;2.37;;;1.17;;
8791;SDS011;4432;50.890;4.744;2022-09-09T03:09:37;2.77;;;1.57;;
8791;SDS011;4432;50.890;4.744;2022-09-09T03:12:03;6.00;;;1.80;;
8791;SDS011;4432;50.890;4.744;2022-09-09T03:14:29;3.70;;;1.23;;
8791;SDS011;4432;50.890;4.744;2022-09-09T03:16:55;3.57;;;1.53;;
8791;SDS011;4432;50.890;4.744;2022-09-09T03:19:23;7.20;;;1.30;;
8791;SDS011;4432;50.890;4.744;2022-09-09T03:21:49;7.77;;;1.63;;
8791;SDS011;4432;50.890;4.744;2022-09-09T03:24:15;7.03;;;1.60;;
8791;SDS011;4432;50.890;4.744;2022-09-09T03:26:41;8.00;;;1.40;;
8791;SDS011;4432;50.890;4.744;2022-09-09T03:29:10;4.37;;;1.60;;
8791;SDS011;4432;50.890;4.744;2022-09-09T03:31:37;4.43;;;1.73;;
8791;SDS011;4432;50.890;4.744;2022-09-09T03:34:04;2.40;;;1.30;;
8791;SDS011;4432;50.890;4.744;2022-09-09T03:36:30;5.90;;;1.40;;
8791;SDS011;4432;50.890;4.744;2022-09-09T03:38:56;9.60;;;1.50;;
8791;SDS011;4432;50.890;4.744;2022-09-09T03:41:22;3.30;;;1.40;;
8791;SDS011;4432;50.890;4.744;2022-09-09T03:43:51;4.53;;;1.80;;
8791;SDS011;4432;50.890;4.744;2022-09-09T03:46:22;4.10;;;1.30;;
8791;SDS011;4432;50.890;4.744;2022-09-09T03:48:49;4.73;;;1.77;;
8791;SDS011;4432;50.890;4.744;2022-09-09T03:51:16;4.73;;;1.77;;
8791;SDS011;4432;50.890;4.744;2022-09-09T03:53:42;3.63;;;1.67;;
8791;SDS011;4432;50.890;4.744;2022-09-09T03:56:08;1.33;;;1.17;;
8791;SDS011;4432;50.890;4.744;2022-09-09T03:58:34;3.70;;;1.20;;
8791;SDS011;4432;50.890;4.744;2022-09-09T04:01:08;3.43;;;1.83;;
8791;SDS011;4432;50.890;4.744;2022-09-09T04:03:35;5.93;;;1.40;;
8791;SDS011;4432;50.890;4.744;2022-09-09T04:06:02;5.03;;;1.80;;
8791;SDS011;4432;50.890;4.744;2022-09-09T04:08:29;7.47;;;1.40;;
8791;SDS011;4432;50.890;4.744;2022-09-09T04:10:58;2.60;;;1.30;;
8791;SDS011;4432;50.890;4.744;2022-09-09T04:13:25;6.00;;;1.63;;
8791;SDS011;4432;50.890;4.744;2022-09-09T04:15:52;6.83;;;1.83;;
8791;SDS011;4432;50.890;4.744;2022-09-09T04:18:22;1.80;;;1.30;;
8791;SDS011;4432;50.890;4.744;2022-09-09T04:20:49;6.20;;;1.87;;
8791;SDS011;4432;50.890;4.744;2022-09-09T04:23:15;7.27;;;1.50;;
8791;SDS011;4432;50.890;4.744;2022-09-09T04:25:50;4.70;;;1.40;;
8791;SDS011;4432;50.890;4.744;2022-09-09T04:28:18;1.73;;;1.53;;
8791;SDS011;4432;50.890;4.744;2022-09-09T04:30:45;2.90;;;1.60;;
8791;SDS011;4432;50.890;4.744;2022-09-09T04:33:12;2.27;;;1.20;;
8791;SDS011;4432;50.890;4.744;2022-09-09T04:35:39;1.63;;;1.20;;
8791;SDS011;4432;50.890;4.744;2022-09-09T04:38:08;2.37;;;1.27;;
8791;SDS011;4432;50.890;4.744;2022-09-09T04:40:34;4.30;;;1.40;;
8791;SDS011;4432;50.890;4.744;2022-09-09T04:43:01;6.27;;;1.70;;
8791;SDS011;4432;50.890;4.744;2022-09-09T04:45:30;4.40;;;1.37;;
8791;SDS011;4432;50.890;4.744;2022-09-09T04:47:56;1.33;;;1.10;;
8791;SDS011;4432;50.890;4.744;2022-09-09T04:50:22;4.40;;;1.50;;
8791;SDS011;4432;50.890;4.744;2022-09-09T04:52:48;8.73;;;1.67;;
8791;SDS011;4432;50.890;4.744;2022-09-09T04:55:14;2.33;;;1.67;;
8791;SDS011;4432;50.890;4.744;2022-09-09T04:57:40;8.90;;;2.13;;
8791;SDS011;4432;50.890;4.744;2022-09-09T05:00:06;3.43;;;1.50;;
8791;SDS011;4432;50.890;4.744;2022-09-09T05:02:32;3.10;;;1.83;;
8791;SDS011;4432;50.890;4.744;2022-09-09T05:05:01;2.90;;;1.33;;
8791;SDS011;4432;50.890;4.744;2022-09-09T05:07:27;1.73;;;1.33;;
8791;SDS011;4432;50.890;4.744;2022-09-09T05:09:54;3.10;;;1.47;;
8791;SDS011;4432;50.890;4.744;2022-09-09T05:12:19;9.83;;;1.77;;
8791;SDS011;4432;50.890;4.744;2022-09-09T05:14:45;4.03;;;1.50;;
8791;SDS011;4432;50.890;4.744;2022-09-09T05:17:11;5.77;;;1.87;;
8791;SDS011;4432;50.890;4.744;2022-09-09T05:19:38;3.97;;;2.33;;
8791;SDS011;4432;50.890;4.744;2022-09-09T05:22:03;9.93;;;2.07;;
8791;SDS011;4432;50.890;4.744;2022-09-09T05:24:30;4.40;;;2.10;;
8791;SDS011;4432;50.890;4.744;2022-09-09T05:26:58;1.63;;;1.30;;
8791;SDS011;4432;50.890;4.744;2022-09-09T05:29:24;3.03;;;1.60;;
8791;SDS011;4432;50.890;4.744;2022-09-09T05:31:51;10.10;;;2.40;;
8791;SDS011;4432;50.890;4.744;2022-09-09T05:34:18;5.07;;;1.87;;
8791;SDS011;4432;50.890;4.744;2022-09-09T05:36:44;1.87;;;1.77;;
8791;SDS011;4432;50.890;4.744;2022-09-09T05:39:10;3.50;;;1.57;;
8791;SDS011;4432;50.890;4.744;2022-09-09T05:41:37;6.97;;;1.77;;
8791;SDS011;4432;50.890;4.744;2022-09-09T05:44:03;6.40;;;1.83;;
8791;SDS011;4432;50.890;4.744;2022-09-09T05:46:28;7.73;;;2.10;;
8791;SDS011;4432;50.890;4.744;2022-09-09T05:48:55;6.40;;;1.77;;
8791;SDS011;4432;50.890;4.744;2022-09-09T05:51:21;6.50;;;1.53;;
8791;SDS011;4432;50.890;4.744;2022-09-09T05:53:49;5.17;;;1.77;;
8791;SDS011;4432;50.890;4.744;2022-09-09T05:56:20;7.03;;;1.90;;
8791;SDS011;4432;50.890;4.744;2022-09-09T05:58:47;1.53;;;1.43;;
8791;SDS011;4432;50.890;4.744;2022-09-09T06:01:24;6.80;;;1.70;;
8791;SDS011;4432;50.890;4.744;2022-09-09T06:03:54;4.40;;;1.40;;
8791;SDS011;4432;50.890;4.744;2022-09-09T06:06:20;4.50;;;1.70;;
8791;SDS011;4432;50.890;4.744;2022-09-09T06:08:49;5.43;;;1.93;;
8791;SDS011;4432;50.890;4.744;2022-09-09T06:11:18;4.43;;;1.40;;
8791;SDS011;4432;50.890;4.744;2022-09-09T06:13:45;4.03;;;1.80;;
8791;SDS011;4432;50.890;4.744;2022-09-09T06:16:16;3.30;;;1.40;;
8791;SDS011;4432;50.890;4.744;2022-09-09T06:18:43;3.77;;;1.33;;
8791;SDS011;4432;50.890;4.744;2022-09-09T06:21:11;2.10;;;1.40;;
8791;SDS011;4432;50.890;4.744;2022-09-09T06:23:41;2.53;;;1.27;;
8791;SDS011;4432;50.890;4.744;2022-09-09T06:26:09;6.07;;;1.53;;
8791;SDS011;4432;50.890;4.744;2022-09-09T06:28:39;4.50;;;1.57;;
8791;SDS011;4432;50.890;4.744;2022-09-09T06:31:08;4.57;;;1.23;;
8791;SDS011;4432;50.890;4.744;2022-09-09T06:33:36;3.97;;;1.17;;
8791;SDS011;4432;50.890;4.744;2022-09-09T06:36:07;9.43;;;1.50;;
8791;SDS011;4432;50.890;4.744;2022-09-09T06:38:37;3.57;;;1.53;;
8791;SDS011;4432;50.890;4.744;2022-09-09T06:41:04;4.40;;;1.63;;
8791;SDS011;4432;50.890;4.744;2022-09-09T06:43:31;2.13;;;1.40;;
8791;SDS011;4432;50.890;4.744;2022-09-09T06:46:08;1.93;;;1.30;;
8791;SDS011;4432;50.890;4.744;2022-09-09T06:48:35;2.17;;;1.40;;
8791;SDS011;4432;50.890;4.744;2022-09-09T06:53:33;3.20;;;1.40;;
8791;SDS011;4432;50.890;4.744;2022-09-09T06:56:00;1.60;;;1.50;;
8791;SDS011;4432;50.890;4.744;2022-09-09T06:58:41;6.27;;;1.57;;
8791;SDS011;4432;50.890;4.744;2022-09-09T07:01:09;4.43;;;1.50;;
8791;SDS011;4432;50.890;4.744;2022-09-09T07:03:40;6.27;;;1.87;;
8791;SDS011;4432;50.890;4.744;2022-09-09T07:06:08;2.23;;;1.37;;
8791;SDS011;4432;50.890;4.744;2022-09-09T07:08:39;2.90;;;1.50;;
8791;SDS011;4432;50.890;4.744;2022-09-09T07:11:06;3.20;;;1.33;;
8791;SDS011;4432;50.890;4.744;2022-09-09T07:13:33;4.57;;;1.27;;
8791;SDS011;4432;50.890;4.744;2022-09-09T07:16:18;3.00;;;1.43;;
8791;SDS011;4432;50.890;4.744;2022-09-09T07:18:45;4.00;;;1.50;;
8791;SDS011;4432;50.890;4.744;2022-09-09T07:21:12;3.97;;;1.33;;
8791;SDS011;4432;50.890;4.744;2022-09-09T07:23:40;2.53;;;1.30;;
8791;SDS011;4432;50.890;4.744;2022-09-09T07:26:16;4.10;;;1.30;;
8791;SDS011;4432;50.890;4.744;2022-09-09T07:28:46;3.60;;;1.20;;
8791;SDS011;4432;50.890;4.744;2022-09-09T07:31:20;10.67;;;1.50;;
8791;SDS011;4432;50.890;4.744;2022-09-09T07:33:51;2.30;;;1.30;;
8791;SDS011;4432;50.890;4.744;2022-09-09T07:38:48;2.33;;;1.37;;
8791;SDS011;4432;50.890;4.744;2022-09-09T07:44:11;2.40;;;1.10;;
8791;SDS011;4432;50.890;4.744;2022-09-09T07:46:38;4.33;;;1.37;;
8791;SDS011;4432;50.890;4.744;2022-09-09T07:49:06;7.33;;;1.57;;
8791;SDS011;4432;50.890;4.744;2022-09-09T07:51:37;5.70;;;1.57;;
8791;SDS011;4432;50.890;4.744;2022-09-09T07:54:09;4.10;;;1.50;;
8791;SDS011;4432;50.890;4.744;2022-09-09T07:56:37;5.67;;;1.57;;
8791;SDS011;4432;50.890;4.744;2022-09-09T07:59:04;6.53;;;1.40;;
8791;SDS011;4432;50.890;4.744;2022-09-09T08:01:41;4.60;;;1.60;;
8791;SDS011;4432;50.890;4.744;2022-09-09T08:04:13;5.20;;;1.60;;
8791;SDS011;4432;50.890;4.744;2022-09-09T08:06:42;6.33;;;1.10;;
8791;SDS011;4432;50.890;4.744;2022-09-09T08:09:19;3.77;;;1.30;;
8791;SDS011;4432;50.890;4.744;2022-09-09T08:11:46;2.73;;;1.10;;
8791;SDS011;4432;50.890;4.744;2022-09-09T08:14:12;6.13;;;1.53;;
8791;SDS011;4432;50.890;4.744;2022-09-09T08:16:40;4.90;;;1.57;;
8791;SDS011;4432;50.890;4.744;2022-09-09T08:19:08;1.37;;;1.20;;
8791;SDS011;4432;50.890;4.744;2022-09-09T08:21:35;3.47;;;1.33;;
8791;SDS011;4432;50.890;4.744;2022-09-09T08:24:02;3.87;;;1.27;;
8791;SDS011;4432;50.890;4.744;2022-09-09T08:26:37;3.00;;;1.27;;
8791;SDS011;4432;50.890;4.744;2022-09-09T08:29:07;3.40;;;1.00;;
8791;SDS011;4432;50.890;4.744;2022-09-09T08:34:02;2.53;;;1.10;;
8791;SDS011;4432;50.890;4.744;2022-09-09T08:36:30;1.27;;;1.00;;
8791;SDS011;4432;50.890;4.744;2022-09-09T08:39:01;4.17;;;1.27;;
8791;SDS011;4432;50.890;4.744;2022-09-09T08:55:54;4.57;;;1.03;;
8791;SDS011;4432;50.890;4.744;2022-09-09T08:58:27;1.43;;;0.90;;
8791;SDS011;4432;50.890;4.744;2022-09-09T09:12:16;5.87;;;1.73;;
8791;SDS011;4432;50.890;4.744;2022-09-09T09:14:48;4.30;;;1.60;;
8791;SDS011;4432;50.890;4.744;2022-09-09T09:17:16;4.57;;;1.27;;
8791;SDS011;4432;50.890;4.744;2022-09-09T09:19:44;3.20;;;1.57;;
8791;SDS011;4432;50.890;4.744;2022-09-09T09:30:01;2.23;;;1.60;;
8791;SDS011;4432;50.890;4.744;2022-09-09T09:32:37;8.00;;;1.50;;
8791;SDS011;4432;50.890;4.744;2022-09-09T09:35:12;2.93;;;1.40;;
8791;SDS011;4432;50.890;4.744;2022-09-09T09:37:39;8.17;;;1.60;;
8791;SDS011;4432;50.890;4.744;2022-09-09T09:40:10;3.63;;;1.60;;
8791;SDS011;4432;50.890;4.744;2022-09-09T09:43:00;4.43;;;1.10;;
8791;SDS011;4432;50.890;4.744;2022-09-09T09:48:03;1.87;;;1.37;;
8791;SDS011;4432;50.890;4.744;2022-09-09T09:50:31;2.47;;;1.60;;
8791;SDS011;4432;50.890;4.744;2022-09-09T09:53:17;3.00;;;1.63;;
8791;SDS011;4432;50.890;4.744;2022-09-09T09:55:57;3.07;;;1.30;;
8791;SDS011;4432;50.890;4.744;2022-09-09T09:58:29;4.37;;;1.40;;
8791;SDS011;4432;50.890;4.744;2022-09-09T10:00:58;3.23;;;1.30;;
8791;SDS011;4432;50.890;4.744;2022-09-09T10:03:32;4.47;;;1.73;;
8791;SDS011;4432;50.890;4.744;2022-09-09T10:06:05;1.30;;;1.20;;
8791;SDS011;4432;50.890;4.744;2022-09-09T10:08:33;1.17;;;1.07;;
8791;SDS011;4432;50.890;4.744;2022-09-09T10:19:19;3.93;;;1.47;;
8791;SDS011;4432;50.890;4.744;2022-09-09T10:36:46;4.90;;;1.50;;
8791;SDS011;4432;50.890;4.744;2022-09-09T10:42:09;6.40;;;1.80;;
8791;SDS011;4432;50.890;4.744;2022-09-09T10:47:40;6.30;;;1.90;;
8791;SDS011;4432;50.890;4.744;2022-09-09T10:52:34;2.00;;;1.70;;
8791;SDS011;4432;50.890;4.744;2022-09-09T10:55:22;3.10;;;1.27;;
8791;SDS011;4432;50.890;4.744;2022-09-09T10:57:53;2.43;;;1.30;;
8791;SDS011;4432;50.890;4.744;2022-09-09T11:00:45;2.53;;;1.47;;
8791;SDS011;4432;50.890;4.744;2022-09-09T11:03:15;1.30;;;1.20;;
8791;SDS011;4432;50.890;4.744;2022-09-09T11:05:55;3.00;;;1.40;;
8791;SDS011;4432;50.890;4.744;2022-09-09T11:08:29;3.10;;;1.40;;
8791;SDS011;4432;50.890;4.744;2022-09-09T11:11:08;3.13;;;1.70;;
8791;SDS011;4432;50.890;4.744;2022-09-09T11:19:22;6.70;;;1.33;;
8791;SDS011;4432;50.890;4.744;2022-09-09T11:21:53;5.90;;;1.63;;
8791;SDS011;4432;50.890;4.744;2022-09-09T11:24:37;2.67;;;1.50;;
8791;SDS011;4432;50.890;4.744;2022-09-09T11:27:11;2.17;;;1.60;;
8791;SDS011;4432;50.890;4.744;2022-09-09T11:38:29;3.83;;;1.20;;
8791;SDS011;4432;50.890;4.744;2022-09-09T11:41:10;6.80;;;1.40;;
8791;SDS011;4432;50.890;4.744;2022-09-09T11:43:42;3.60;;;1.37;;
8791;SDS011;4432;50.890;4.744;2022-09-09T11:46:19;4.57;;;1.50;;
8791;SDS011;4432;50.890;4.744;2022-09-09T11:49:01;4.07;;;1.27;;
8791;SDS011;4432;50.890;4.744;2022-09-09T11:51:29;2.30;;;1.50;;
8791;SDS011;4432;50.890;4.744;2022-09-09T11:54:01;4.30;;;1.50;;
8791;SDS011;4432;50.890;4.744;2022-09-09T11:56:47;3.00;;;1.10;;
8791;SDS011;4432;50.890;4.744;2022-09-09T11:59:32;2.73;;;1.30;;
8791;SDS011;4432;50.890;4.744;2022-09-09T12:01:58;3.60;;;1.23;;
8791;SDS011;4432;50.890;4.744;2022-09-09T12:04:49;2.47;;;0.87;;
8791;SDS011;4432;50.890;4.744;2022-09-09T12:12:32;5.93;;;1.37;;
8791;SDS011;4432;50.890;4.744;2022-09-09T12:20:14;5.10;;;1.10;;
8791;SDS011;4432;50.890;4.744;2022-09-09T12:33:12;1.10;;;1.00;;
8791;SDS011;4432;50.890;4.744;2022-09-09T12:35:41;2.20;;;1.00;;
8791;SDS011;4432;50.890;4.744;2022-09-09T12:38:15;2.73;;;1.20;;
8791;SDS011;4432;50.890;4.744;2022-09-09T12:40:55;4.17;;;1.30;;
8791;SDS011;4432;50.890;4.744;2022-09-09T12:43:23;2.80;;;1.10;;
8791;SDS011;4432;50.890;4.744;2022-09-09T12:45:58;6.17;;;1.37;;
8791;SDS011;4432;50.890;4.744;2022-09-09T12:48:38;2.53;;;1.10;;
8791;SDS011;4432;50.890;4.744;2022-09-09T12:51:19;2.00;;;1.00;;
8791;SDS011;4432;50.890;4.744;2022-09-09T12:53:52;2.50;;;1.23;;
8791;SDS011;4432;50.890;4.744;2022-09-09T12:56:19;1.70;;;0.90;;
8791;SDS011;4432;50.890;4.744;2022-09-09T12:58:48;1.97;;;0.93;;
8791;SDS011;4432;50.890;4.744;2022-09-09T13:01:21;3.50;;;1.10;;
8791;SDS011;4432;50.890;4.744;2022-09-09T13:03:48;3.87;;;1.27;;
8791;SDS011;4432;50.890;4.744;2022-09-09T13:06:33;1.17;;;1.10;;
8791;SDS011;4432;50.890;4.744;2022-09-09T13:09:00;1.50;;;1.00;;
8791;SDS011;4432;50.890;4.744;2022-09-09T13:14:12;1.63;;;1.07;;
8791;SDS011;4432;50.890;4.744;2022-09-09T13:16:57;1.67;;;1.03;;
8791;SDS011;4432;50.890;4.744;2022-09-09T13:19:25;3.40;;;1.00;;
8791;SDS011;4432;50.890;4.744;2022-09-09T13:21:53;2.67;;;0.90;;
8791;SDS011;4432;50.890;4.744;2022-09-09T13:24:28;2.77;;;1.10;;
8791;SDS011;4432;50.890;4.744;2022-09-09T13:27:00;3.90;;;1.00;;
8791;SDS011;4432;50.890;4.744;2022-09-09T13:30:19;2.77;;;1.13;;
8791;SDS011;4432;50.890;4.744;2022-09-09T13:32:48;2.47;;;1.00;;
8791;SDS011;4432;50.890;4.744;2022-09-09T13:35:26;3.97;;;0.90;;
8791;SDS011;4432;50.890;4.744;2022-09-09T13:37:52;3.13;;;1.20;;
8791;SDS011;4432;50.890;4.744;2022-09-09T13:40:19;1.17;;;0.90;;
8791;SDS011;4432;50.890;4.744;2022-09-09T13:42:52;3.73;;;1.00;;
8791;SDS011;4432;50.890;4.744;2022-09-09T13:45:22;2.57;;;0.90;;
8791;SDS011;4432;50.890;4.744;2022-09-09T13:47:52;3.03;;;1.17;;
8791;SDS011;4432;50.890;4.744;2022-09-09T13:50:29;2.63;;;1.07;;
8791;SDS011;4432;50.890;4.744;2022-09-09T13:52:56;3.53;;;1.13;;
8791;SDS011;4432;50.890;4.744;2022-09-09T13:55:26;1.23;;;0.80;;
8791;SDS011;4432;50.890;4.744;2022-09-09T13:57:54;0.90;;;0.90;;
8791;SDS011;4432;50.890;4.744;2022-09-09T14:00:20;2.13;;;0.93;;
8791;SDS011;4432;50.890;4.744;2022-09-09T14:02:48;0.90;;;0.90;;
8791;SDS011;4432;50.890;4.744;2022-09-09T14:05:13;1.53;;;0.80;;
8791;SDS011;4432;50.890;4.744;2022-09-09T14:07:41;7.40;;;1.10;;
8791;SDS011;4432;50.890;4.744;2022-09-09T14:10:08;0.83;;;0.83;;
8791;SDS011;4432;50.890;4.744;2022-09-09T14:12:34;0.90;;;0.90;;
8791;SDS011;4432;50.890;4.744;2022-09-09T14:15:01;1.27;;;1.17;;
8791;SDS011;4432;50.890;4.744;2022-09-09T14:17:28;3.90;;;1.10;;
8791;SDS011;4432;50.890;4.744;2022-09-09T14:19:55;3.23;;;1.20;;
8791;SDS011;4432;50.890;4.744;2022-09-09T14:22:21;1.50;;;0.80;;
8791;SDS011;4432;50.890;4.744;2022-09-09T14:24:47;0.90;;;0.90;;
8791;SDS011;4432;50.890;4.744;2022-09-09T14:27:14;0.83;;;0.83;;
8791;SDS011;4432;50.890;4.744;2022-09-09T14:29:40;2.70;;;1.00;;
8791;SDS011;4432;50.890;4.744;2022-09-09T14:32:05;1.70;;;1.13;;
8791;SDS011;4432;50.890;4.744;2022-09-09T14:34:31;1.00;;;1.00;;
8791;SDS011;4432;50.890;4.744;2022-09-09T14:36:57;1.57;;;0.97;;
8791;SDS011;4432;50.890;4.744;2022-09-09T14:39:23;2.10;;;1.03;;
8791;SDS011;4432;50.890;4.744;2022-09-09T14:41:49;1.00;;;0.87;;
8791;SDS011;4432;50.890;4.744;2022-09-09T14:44:15;1.17;;;1.07;;
8791;SDS011;4432;50.890;4.744;2022-09-09T14:46:43;1.07;;;1.07;;
8791;SDS011;4432;50.890;4.744;2022-09-09T14:49:09;1.83;;;1.00;;
8791;SDS011;4432;50.890;4.744;2022-09-09T14:51:35;1.03;;;0.83;;
8791;SDS011;4432;50.890;4.744;2022-09-09T14:54:01;2.47;;;1.00;;
8791;SDS011;4432;50.890;4.744;2022-09-09T14:56:29;1.80;;;1.17;;
8791;SDS011;4432;50.890;4.744;2022-09-09T14:58:57;1.33;;;1.10;;
8791;SDS011;4432;50.890;4.744;2022-09-09T15:01:26;1.00;;;1.00;;
8791;SDS011;4432;50.890;4.744;2022-09-09T15:03:56;3.20;;;1.20;;
8791;SDS011;4432;50.890;4.744;2022-09-09T15:06:24;1.87;;;0.90;;
8791;SDS011;4432;50.890;4.744;2022-09-09T15:08:52;1.60;;;1.03;;
8791;SDS011;4432;50.890;4.744;2022-09-09T15:11:19;1.23;;;0.90;;
8791;SDS011;4432;50.890;4.744;2022-09-09T15:13:45;1.47;;;1.20;;
8791;SDS011;4432;50.890;4.744;2022-09-09T15:16:13;2.30;;;1.13;;
8791;SDS011;4432;50.890;4.744;2022-09-09T15:18:40;3.00;;;1.20;;
8791;SDS011;4432;50.890;4.744;2022-09-09T15:21:26;2.70;;;1.27;;
8791;SDS011;4432;50.890;4.744;2022-09-09T15:23:54;2.03;;;1.00;;
8791;SDS011;4432;50.890;4.744;2022-09-09T15:26:21;2.53;;;1.13;;
8791;SDS011;4432;50.890;4.744;2022-09-09T15:28:47;1.50;;;1.10;;
8791;SDS011;4432;50.890;4.744;2022-09-09T15:31:24;4.10;;;1.10;;
8791;SDS011;4432;50.890;4.744;2022-09-09T15:34:11;2.57;;;1.00;;
8791;SDS011;4432;50.890;4.744;2022-09-09T15:36:42;1.67;;;1.20;;
8791;SDS011;4432;50.890;4.744;2022-09-09T15:39:11;1.20;;;0.93;;
8791;SDS011;4432;50.890;4.744;2022-09-09T15:41:44;0.90;;;0.90;;
8791;SDS011;4432;50.890;4.744;2022-09-09T15:44:11;4.40;;;1.00;;
8791;SDS011;4432;50.890;4.744;2022-09-09T15:46:41;3.37;;;1.10;;
8791;SDS011;4432;50.890;4.744;2022-09-09T15:49:14;3.30;;;1.10;;
8791;SDS011;4432;50.890;4.744;2022-09-09T15:51:45;1.20;;;0.77;;
8791;SDS011;4432;50.890;4.744;2022-09-09T15:54:16;3.30;;;1.30;;
8791;SDS011;4432;50.890;4.744;2022-09-09T15:56:43;0.77;;;0.77;;
8791;SDS011;4432;50.890;4.744;2022-09-09T15:59:15;2.23;;;1.17;;
8791;SDS011;4432;50.890;4.744;2022-09-09T16:01:41;2.50;;;1.00;;
8791;SDS011;4432;50.890;4.744;2022-09-09T16:04:09;2.43;;;1.27;;
8791;SDS011;4432;50.890;4.744;2022-09-09T16:06:34;1.63;;;0.80;;
8791;SDS011;4432;50.890;4.744;2022-09-09T16:09:02;1.17;;;0.87;;
8791;SDS011;4432;50.890;4.744;2022-09-09T16:11:32;2.60;;;1.00;;
8791;SDS011;4432;50.890;4.744;2022-09-09T16:14:00;1.83;;;1.07;;
8791;SDS011;4432;50.890;4.744;2022-09-09T16:16:27;1.97;;;0.93;;
8791;SDS011;4432;50.890;4.744;2022-09-09T16:18:55;1.10;;;1.00;;
8791;SDS011;4432;50.890;4.744;2022-09-09T16:21:24;4.97;;;1.00;;
8791;SDS011;4432;50.890;4.744;2022-09-09T16:23:54;2.93;;;1.40;;
8791;SDS011;4432;50.890;4.744;2022-09-09T16:26:21;1.80;;;1.10;;
8791;SDS011;4432;50.890;4.744;2022-09-09T16:28:47;1.93;;;1.30;;
8791;SDS011;4432;50.890;4.744;2022-09-09T16:31:18;4.17;;;0.90;;
8791;SDS011;4432;50.890;4.744;2022-09-09T16:33:46;2.60;;;0.90;;
8791;SDS011;4432;50.890;4.744;2022-09-09T16:36:16;5.53;;;1.43;;
8791;SDS011;4432;50.890;4.744;2022-09-09T16:38:44;2.10;;;1.20;;
8791;SDS011;4432;50.890;4.744;2022-09-09T16:41:11;1.00;;;0.90;;
8791;SDS011;4432;50.890;4.744;2022-09-09T16:43:38;0.70;;;0.70;;
8791;SDS011;4432;50.890;4.744;2022-09-09T16:46:18;3.23;;;1.10;;
8791;SDS011;4432;50.890;4.744;2022-09-09T16:48:45;4.03;;;1.20;;
8791;SDS011;4432;50.890;4.744;2022-09-09T16:51:14;2.17;;;1.20;;
8791;SDS011;4432;50.890;4.744;2022-09-09T16:53:49;0.90;;;0.90;;
8791;SDS011;4432;50.890;4.744;2022-09-09T16:56:16;1.60;;;1.10;;
8791;SDS011;4432;50.890;4.744;2022-09-09T16:58:56;1.23;;;1.13;;
8791;SDS011;4432;50.890;4.744;2022-09-09T17:01:24;1.10;;;0.97;;
8791;SDS011;4432;50.890;4.744;2022-09-09T17:03:54;3.57;;;1.27;;
8791;SDS011;4432;50.890;4.744;2022-09-09T17:06:21;2.03;;;1.37;;
8791;SDS011;4432;50.890;4.744;2022-09-09T17:08:53;2.77;;;1.03;;
8791;SDS011;4432;50.890;4.744;2022-09-09T17:11:26;1.20;;;0.90;;
8791;SDS011;4432;50.890;4.744;2022-09-09T17:13:54;1.13;;;1.10;;
8791;SDS011;4432;50.890;4.744;2022-09-09T17:16:21;2.57;;;1.17;;
8791;SDS011;4432;50.890;4.744;2022-09-09T17:18:48;1.43;;;1.00;;
8791;SDS011;4432;50.890;4.744;2022-09-09T17:21:16;1.00;;;1.00;;
8791;SDS011;4432;50.890;4.744;2022-09-09T17:23:44;0.80;;;0.80;;
8791;SDS011;4432;50.890;4.744;2022-09-09T17:26:12;2.13;;;1.20;;
8791;SDS011;4432;50.890;4.744;2022-09-09T17:28:40;1.00;;;0.77;;
8791;SDS011;4432;50.890;4.744;2022-09-09T17:31:07;2.07;;;0.80;;
8791;SDS011;4432;50.890;4.744;2022-09-09T17:33:35;1.00;;;1.00;;
8791;SDS011;4432;50.890;4.744;2022-09-09T17:36:07;0.90;;;0.90;;
8791;SDS011;4432;50.890;4.744;2022-09-09T17:38:35;1.00;;;0.80;;
8791;SDS011;4432;50.890;4.744;2022-09-09T17:43:32;1.63;;;0.90;;
8791;SDS011;4432;50.890;4.744;2022-09-09T17:48:56;1.90;;;0.90;;
8791;SDS011;4432;50.890;4.744;2022-09-09T17:51:24;1.30;;;0.93;;
8791;SDS011;4432;50.890;4.744;2022-09-09T17:53:59;2.93;;;1.17;;
8791;SDS011;4432;50.890;4.744;2022-09-09T17:56:27;1.43;;;1.03;;
8791;SDS011;4432;50.890;4.744;2022-09-09T17:58:55;0.80;;;0.80;;
8791;SDS011;4432;50.890;4.744;2022-09-09T18:01:23;2.07;;;1.07;;
8791;SDS011;4432;50.890;4.744;2022-09-09T18:03:52;3.33;;;1.00;;
8791;SDS011;4432;50.890;4.744;2022-09-09T18:06:19;3.13;;;1.20;;
8791;SDS011;4432;50.890;4.744;2022-09-09T18:08:51;1.43;;;1.00;;
8791;SDS011;4432;50.890;4.744;2022-09-09T18:11:20;0.70;;;0.70;;
8791;SDS011;4432;50.890;4.744;2022-09-09T18:13:54;2.17;;;1.20;;
8791;SDS011;4432;50.890;4.744;2022-09-09T18:16:22;2.43;;;1.10;;
8791;SDS011;4432;50.890;4.744;2022-09-09T18:18:50;1.30;;;1.00;;
8791;SDS011;4432;50.890;4.744;2022-09-09T18:21:17;2.67;;;1.20;;
8791;SDS011;4432;50.890;4.744;2022-09-09T18:23:44;2.63;;;1.10;;
8791;SDS011;4432;50.890;4.744;2022-09-09T18:26:14;1.73;;;1.10;;